createdAt,value
2023-05-21T00:01:48.504Z,3.25
2023-05-21T00:04:18.131Z,4.05
2023-05-21T00:06:45.952Z,5.65
2023-05-21T00:09:13.792Z,4.68
2023-05-21T00:11:43.493Z,4.97
2023-05-21T00:14:11.322Z,5.43
2023-05-21T00:16:39.176Z,3.42
2023-05-21T00:19:07.590Z,5.13
2023-05-21T00:21:35.412Z,4.30
2023-05-21T00:24:03.212Z,3.42
2023-05-21T00:26:31.489Z,3.20
2023-05-21T00:29:00.843Z,4.63
2023-05-21T00:31:28.650Z,5.80
2023-05-21T00:33:56.923Z,5.10
2023-05-21T00:36:25.210Z,3.83
2023-05-21T00:38:53.056Z,5.53
2023-05-21T00:41:23.253Z,3.38
2023-05-21T00:43:51.070Z,5.70
2023-05-21T00:46:22.378Z,5.13
2023-05-21T00:48:51.669Z,3.88
2023-05-21T00:51:21.839Z,5.95
2023-05-21T00:53:52.558Z,3.78
2023-05-21T00:56:21.872Z,4.60
2023-05-21T00:58:51.801Z,3.60
2023-05-21T01:01:21.745Z,4.72
2023-05-21T01:03:49.613Z,3.50
2023-05-21T01:06:17.426Z,3.95
2023-05-21T01:08:45.739Z,3.92
2023-05-21T01:11:15.049Z,4.35
2023-05-21T01:13:43.594Z,3.05
2023-05-21T01:16:13.987Z,3.25
2023-05-21T01:18:45.218Z,5.82
2023-05-21T01:21:13.655Z,3.80
2023-05-21T01:23:43.494Z,3.25
2023-05-21T01:26:12.961Z,3.80
2023-05-21T01:28:40.809Z,4.15
2023-05-21T01:31:18.367Z,6.50
2023-05-21T01:33:51.100Z,6.07
2023-05-21T01:36:26.721Z,5.38
2023-05-21T01:39:02.064Z,6.45
2023-05-21T01:41:33.976Z,4.00
2023-05-21T01:44:03.223Z,5.70
2023-05-21T01:46:34.776Z,3.33
2023-05-21T01:49:03.745Z,4.63
2023-05-21T01:51:32.149Z,5.35
2023-05-21T01:54:01.331Z,2.97
2023-05-21T01:56:29.185Z,3.45
2023-05-21T01:58:59.782Z,5.07
2023-05-21T02:01:30.154Z,5.70
2023-05-21T02:03:58.575Z,5.80
2023-05-21T02:06:26.871Z,3.47
2023-05-21T02:08:55.536Z,4.80
2023-05-21T02:11:24.795Z,3.50
2023-05-21T02:13:52.799Z,4.15
2023-05-21T02:16:22.507Z,5.35
2023-05-21T02:18:52.225Z,4.63
2023-05-21T02:23:48.873Z,2.95
2023-05-21T02:26:17.480Z,6.10
2023-05-21T02:28:46.996Z,3.77
2023-05-21T02:31:14.828Z,3.70
2023-05-21T02:33:43.117Z,5.80
2023-05-21T02:36:13.493Z,5.40
2023-05-21T02:38:43.444Z,4.88
2023-05-21T02:41:11.920Z,3.83
2023-05-21T02:43:39.978Z,3.45
2023-05-21T02:46:09.564Z,4.07
2023-05-21T02:51:05.429Z,7.75
2023-05-21T02:53:33.290Z,4.00
2023-05-21T02:56:01.191Z,3.40
2023-05-21T02:58:29.234Z,3.20
2023-05-21T03:00:57.088Z,6.68
2023-05-21T03:03:26.406Z,3.85
2023-05-21T03:05:54.757Z,5.95
2023-05-21T03:08:22.570Z,4.85
2023-05-21T03:10:50.393Z,3.83
2023-05-21T03:13:18.608Z,5.75
2023-05-21T03:15:46.599Z,4.35
2023-05-21T03:18:14.527Z,3.67
2023-05-21T03:20:45.882Z,4.07
2023-05-21T03:23:16.469Z,4.70
2023-05-21T03:25:46.325Z,7.85
2023-05-21T03:28:14.176Z,6.70
2023-05-21T03:30:41.991Z,7.13
2023-05-21T03:33:11.482Z,5.65
2023-05-21T03:35:39.314Z,5.30
2023-05-21T03:38:08.708Z,5.75
2023-05-21T03:40:36.861Z,5.85
2023-05-21T03:43:04.722Z,5.40
2023-05-21T03:45:32.523Z,6.35
2023-05-21T03:48:02.276Z,5.53
2023-05-21T03:50:30.186Z,8.95
2023-05-21T03:52:58.005Z,8.23
2023-05-21T03:55:27.549Z,6.20
2023-05-21T04:00:23.022Z,10.05
2023-05-21T04:02:51.201Z,8.13
2023-05-21T04:05:19.110Z,7.47
2023-05-21T04:07:47.433Z,7.78
2023-05-21T04:10:15.398Z,10.45
2023-05-21T04:12:44.588Z,7.93
2023-05-21T04:15:12.794Z,7.05
2023-05-21T04:17:40.860Z,6.75
2023-05-21T04:20:09.713Z,7.60
2023-05-21T04:22:37.775Z,7.72
2023-05-21T04:25:06.467Z,6.65
2023-05-21T04:27:34.587Z,8.00
2023-05-21T04:30:05.025Z,9.07
2023-05-21T04:32:33.575Z,6.82
2023-05-21T04:35:02.036Z,7.68
2023-05-21T04:37:31.438Z,6.45
2023-05-21T04:40:01.821Z,6.50
2023-05-21T04:42:30.422Z,8.80
2023-05-21T04:44:59.450Z,8.63
2023-05-21T04:47:30.549Z,7.38
2023-05-21T04:49:59.379Z,8.75
2023-05-21T04:52:27.227Z,7.05
2023-05-21T04:54:55.507Z,10.02
2023-05-21T04:57:24.521Z,8.65
2023-05-21T04:59:52.731Z,7.38
2023-05-21T05:02:21.015Z,8.48
2023-05-21T05:04:50.268Z,12.13
2023-05-21T05:07:18.623Z,9.02
2023-05-21T05:09:46.731Z,7.25
2023-05-21T05:12:14.578Z,8.48
2023-05-21T05:14:42.411Z,9.20
2023-05-21T05:17:10.879Z,9.70
2023-05-21T05:19:38.680Z,8.25
2023-05-21T05:22:08.121Z,7.18
2023-05-21T05:24:36.214Z,6.93
2023-05-21T05:27:04.104Z,10.15
2023-05-21T05:29:31.953Z,7.30
2023-05-21T05:31:59.976Z,8.25
2023-05-21T05:34:27.830Z,10.38
2023-05-21T05:36:57.239Z,8.13
2023-05-21T05:39:26.698Z,10.02
2023-05-21T05:41:54.577Z,9.50
2023-05-21T05:44:22.387Z,8.32
2023-05-21T05:46:50.484Z,7.25
2023-05-21T05:49:18.321Z,7.65
2023-05-21T05:51:46.158Z,9.02
2023-05-21T05:54:14.058Z,7.45
2023-05-21T05:56:43.255Z,8.75
2023-05-21T05:59:11.063Z,7.20
2023-05-21T06:01:38.932Z,7.28
2023-05-21T06:04:06.776Z,7.82
2023-05-21T06:06:34.954Z,8.18
2023-05-21T06:09:02.929Z,7.57
2023-05-21T06:11:30.858Z,9.02
2023-05-21T06:14:01.729Z,9.25
2023-05-21T06:16:31.324Z,9.25
2023-05-21T06:18:59.579Z,9.77
2023-05-21T06:21:27.759Z,8.23
2023-05-21T06:23:55.561Z,12.45
2023-05-21T06:26:23.822Z,11.07
2023-05-21T06:28:51.649Z,12.30
2023-05-21T06:31:22.387Z,7.78
2023-05-21T06:33:50.862Z,9.07
2023-05-21T06:36:19.902Z,7.88
2023-05-21T06:38:47.876Z,11.93
2023-05-21T06:41:15.684Z,9.38
2023-05-21T06:43:43.741Z,7.82
2023-05-21T06:46:11.617Z,8.02
2023-05-21T06:48:40.799Z,9.20
2023-05-21T06:51:08.642Z,8.18
2023-05-21T06:53:36.490Z,7.05
2023-05-21T06:56:04.542Z,8.32
2023-05-21T06:58:32.398Z,8.13
2023-05-21T07:01:00.239Z,9.27
2023-05-21T07:03:28.637Z,9.50
2023-05-21T07:05:58.939Z,7.50
2023-05-21T07:08:27.253Z,9.93
2023-05-21T07:10:56.724Z,8.23
2023-05-21T07:13:24.588Z,8.32
2023-05-21T07:15:52.388Z,7.65
2023-05-21T07:18:20.736Z,10.93
2023-05-21T07:20:48.615Z,7.43
2023-05-21T07:23:17.887Z,11.60
2023-05-21T07:25:46.026Z,8.98
2023-05-21T07:28:13.873Z,8.23
2023-05-21T07:30:41.722Z,8.40
2023-05-21T07:33:09.885Z,8.20
2023-05-21T07:35:37.940Z,8.98
2023-05-21T07:38:08.291Z,7.78
2023-05-21T07:40:37.594Z,10.55
2023-05-21T07:43:05.419Z,8.20
2023-05-21T07:45:33.270Z,10.20
2023-05-21T07:48:01.367Z,9.98
2023-05-21T07:50:29.316Z,8.27
2023-05-21T07:52:57.146Z,8.07
2023-05-21T07:55:25.017Z,8.98
2023-05-21T07:57:54.252Z,9.60
2023-05-21T08:00:26.019Z,7.68
2023-05-21T08:02:53.899Z,9.95
2023-05-21T08:05:23.492Z,9.63
2023-05-21T08:10:19.674Z,8.07
2023-05-21T08:12:47.647Z,11.35
2023-05-21T08:15:17.285Z,9.27
2023-05-21T08:17:45.148Z,7.70
2023-05-21T08:20:14.452Z,8.07
2023-05-21T08:22:43.327Z,11.48
2023-05-21T08:25:11.194Z,9.32
2023-05-21T08:27:39.180Z,9.80
2023-05-21T08:30:08.993Z,8.85
2023-05-21T08:32:38.291Z,8.23
2023-05-21T08:35:07.296Z,8.13
2023-05-21T08:37:35.372Z,7.95
2023-05-21T08:40:03.958Z,10.93
2023-05-21T08:42:44.153Z,10.67
2023-05-21T08:45:13.721Z,11.13
2023-05-21T08:50:14.435Z,8.60
2023-05-21T08:55:11.034Z,8.63
2023-05-21T08:57:43.816Z,10.07
2023-05-21T09:00:12.795Z,8.90
2023-05-21T09:02:43.575Z,9.02
2023-05-21T09:05:14.502Z,13.00
2023-05-21T09:07:50.393Z,8.98
2023-05-21T09:10:25.389Z,10.38
2023-05-21T09:12:53.307Z,10.50
2023-05-21T09:15:21.418Z,10.00
2023-05-21T09:17:49.506Z,9.85
2023-05-21T09:20:19.266Z,9.75
2023-05-21T09:22:49.084Z,9.38
2023-05-21T09:25:18.445Z,11.88
2023-05-21T09:27:46.295Z,12.38
2023-05-21T09:30:16.181Z,10.32
2023-05-21T09:32:45.647Z,10.32
2023-05-21T09:37:45.316Z,12.02
2023-05-21T09:40:15.264Z,16.15
2023-05-21T09:42:44.944Z,11.98
2023-05-21T09:45:13.526Z,10.20
2023-05-21T09:47:44.165Z,11.00
2023-05-21T09:50:12.697Z,17.48
2023-05-21T09:52:42.384Z,13.82
2023-05-21T09:55:15.029Z,13.43
2023-05-21T09:57:44.069Z,11.77
2023-05-21T10:00:20.148Z,19.13
2023-05-21T10:02:49.407Z,15.45
2023-05-21T10:05:17.985Z,14.65
2023-05-21T10:07:51.043Z,12.25
2023-05-21T10:10:22.744Z,17.80
2023-05-21T10:12:56.626Z,14.07
2023-05-21T10:15:25.872Z,14.38
2023-05-21T10:17:56.773Z,13.30
2023-05-21T10:20:25.269Z,18.38
2023-05-21T10:22:54.124Z,19.70
2023-05-21T10:25:24.819Z,12.55
2023-05-21T10:27:54.788Z,13.30
2023-05-21T10:30:22.841Z,15.13
2023-05-21T10:32:51.231Z,21.65
2023-05-21T10:35:19.532Z,24.85
2023-05-21T10:37:48.043Z,16.15
2023-05-21T10:40:16.048Z,13.63
2023-05-21T10:45:54.472Z,13.52
2023-05-21T10:48:36.646Z,15.52
2023-05-21T10:51:26.241Z,14.43
2023-05-21T10:54:20.604Z,13.40
2023-05-21T10:56:58.530Z,28.38
2023-05-21T10:59:38.002Z,18.08
2023-05-21T11:04:39.921Z,15.75
2023-05-21T11:07:08.394Z,16.38
2023-05-21T11:09:36.312Z,15.07
2023-05-21T11:12:04.728Z,15.75
2023-05-21T11:14:36.417Z,15.23
2023-05-21T11:17:05.445Z,14.50
2023-05-21T11:19:40.042Z,12.80
2023-05-21T11:22:21.830Z,13.95
2023-05-21T11:24:51.426Z,13.75
2023-05-21T11:27:33.847Z,15.20
2023-05-21T11:30:05.761Z,16.30
2023-05-21T11:32:33.734Z,16.17
2023-05-21T11:35:03.176Z,13.13
2023-05-21T11:40:22.412Z,15.90
2023-05-21T11:42:52.403Z,16.38
2023-05-21T11:45:21.498Z,15.57
2023-05-21T11:47:50.075Z,14.13
2023-05-21T11:50:20.440Z,15.67
2023-05-21T11:52:48.597Z,13.00
2023-05-21T11:55:17.310Z,14.27
2023-05-21T11:57:48.242Z,17.17
2023-05-21T12:00:17.473Z,14.93
2023-05-21T12:02:47.476Z,19.88
2023-05-21T12:05:15.930Z,14.52
2023-05-21T12:07:50.054Z,13.10
2023-05-21T12:10:18.459Z,14.27
2023-05-21T12:12:54.608Z,15.68
2023-05-21T12:15:25.123Z,16.25
2023-05-21T12:17:53.647Z,15.20
2023-05-21T12:20:21.822Z,17.57
2023-05-21T12:22:51.344Z,14.98
2023-05-21T12:25:21.068Z,25.52
2023-05-21T12:27:52.683Z,16.25
2023-05-21T12:30:21.910Z,15.68
2023-05-21T12:32:50.267Z,18.55
2023-05-21T12:35:24.877Z,16.23
2023-05-21T12:37:54.338Z,16.27
2023-05-21T12:40:22.345Z,20.60
2023-05-21T12:42:51.800Z,14.75
2023-05-21T12:47:50.633Z,16.63
2023-05-21T12:50:22.791Z,14.43
2023-05-21T12:52:50.600Z,17.42
2023-05-21T12:55:19.968Z,15.80
2023-05-21T13:00:16.129Z,15.10
2023-05-21T13:02:45.826Z,13.70
2023-05-21T13:05:17.954Z,14.57
2023-05-21T13:07:47.415Z,14.50
2023-05-21T13:10:17.264Z,14.65
2023-05-21T13:12:46.724Z,13.07
2023-05-21T13:15:16.112Z,14.95
2023-05-21T13:20:13.217Z,14.00
2023-05-21T13:22:43.672Z,14.00
2023-05-21T13:25:12.459Z,14.18
2023-05-21T13:27:40.534Z,13.85
2023-05-21T13:30:12.081Z,13.27
2023-05-21T13:32:41.340Z,15.88
2023-05-21T13:35:10.224Z,13.55
2023-05-21T13:37:38.365Z,13.35
2023-05-21T13:40:07.728Z,16.55
2023-05-21T13:45:06.423Z,14.88
2023-05-21T13:47:38.455Z,14.95
2023-05-21T13:50:09.290Z,13.88
2023-05-21T13:55:05.950Z,14.00
2023-05-21T13:57:34.206Z,14.02
2023-05-21T14:00:02.443Z,15.30
2023-05-21T14:02:31.125Z,13.40
2023-05-21T14:05:00.668Z,12.40
2023-05-21T14:07:28.616Z,15.50
2023-05-21T14:09:57.024Z,12.75
2023-05-21T14:12:24.932Z,13.15
2023-05-21T14:14:52.926Z,13.20
2023-05-21T14:17:21.190Z,14.02
2023-05-21T14:19:49.158Z,12.68
2023-05-21T14:22:21.938Z,16.08
2023-05-21T14:24:49.849Z,15.13
2023-05-21T14:27:17.946Z,13.45
2023-05-21T14:29:46.034Z,13.40
2023-05-21T14:32:13.861Z,12.77
2023-05-21T14:34:41.734Z,12.88
2023-05-21T14:37:09.885Z,12.98
2023-05-21T14:39:39.101Z,12.63
2023-05-21T14:42:07.053Z,13.30
2023-05-21T14:44:35.119Z,16.85
2023-05-21T14:47:02.940Z,13.48
2023-05-21T14:49:30.740Z,11.75
2023-05-21T14:51:58.810Z,12.38
2023-05-21T14:54:26.587Z,12.95
2023-05-21T14:56:55.767Z,12.80
2023-05-21T14:59:23.813Z,12.48
2023-05-21T15:01:51.771Z,11.27
2023-05-21T15:04:19.644Z,10.70
2023-05-21T15:06:47.807Z,14.98
2023-05-21T15:09:15.714Z,13.80
2023-05-21T15:11:46.089Z,14.63
2023-05-21T15:14:18.517Z,11.57
2023-05-21T15:16:46.406Z,11.52
2023-05-21T15:19:14.304Z,13.27
2023-05-21T15:21:42.447Z,17.33
2023-05-21T15:24:11.182Z,14.38
2023-05-21T15:26:39.062Z,15.98
2023-05-21T15:29:07.340Z,16.15
2023-05-21T15:31:36.517Z,12.45
2023-05-21T15:34:04.455Z,12.13
2023-05-21T15:36:32.532Z,12.68
2023-05-21T15:39:03.349Z,10.75
2023-05-21T15:41:31.154Z,13.57
2023-05-21T15:43:59.137Z,12.02
2023-05-21T15:46:26.983Z,12.40
2023-05-21T15:48:56.578Z,13.88
2023-05-21T15:51:24.613Z,12.98
2023-05-21T15:53:52.400Z,12.30
2023-05-21T15:56:21.751Z,13.10
2023-05-21T16:01:17.557Z,11.75
2023-05-21T16:03:45.463Z,16.83
2023-05-21T16:06:14.845Z,14.30
2023-05-21T16:11:10.322Z,12.98
2023-05-21T16:13:38.289Z,13.63
2023-05-21T16:16:06.622Z,12.23
2023-05-21T16:18:34.435Z,12.25
2023-05-21T16:21:02.447Z,14.13
2023-05-21T16:23:33.180Z,14.85
2023-05-21T16:26:01.230Z,13.55
2023-05-21T16:28:29.781Z,12.73
2023-05-21T16:30:57.643Z,12.27
2023-05-21T16:33:25.741Z,15.20
2023-05-21T16:35:54.426Z,15.50
2023-05-21T16:38:22.628Z,12.18
2023-05-21T16:40:51.792Z,11.57
2023-05-21T16:43:19.770Z,13.68
2023-05-21T16:45:48.869Z,12.23
2023-05-21T16:48:17.402Z,11.68
2023-05-21T16:50:46.906Z,11.73
2023-05-21T16:53:14.862Z,11.93
2023-05-21T16:55:43.308Z,15.27
2023-05-21T16:58:13.713Z,12.10
2023-05-21T17:00:41.552Z,12.73
2023-05-21T17:03:09.583Z,11.63
2023-05-21T17:05:37.892Z,18.83
2023-05-21T17:08:06.278Z,13.13
2023-05-21T17:10:34.693Z,14.00
2023-05-21T17:13:17.523Z,10.55
2023-05-21T17:15:50.886Z,11.63
2023-05-21T17:18:19.165Z,11.82
2023-05-21T17:20:46.990Z,11.38
2023-05-21T17:23:14.974Z,12.57
2023-05-21T17:25:43.166Z,11.65
2023-05-21T17:28:11.216Z,14.75
2023-05-21T17:30:39.576Z,11.07
2023-05-21T17:33:10.608Z,12.02
2023-05-21T17:35:39.009Z,14.43
2023-05-21T17:38:07.157Z,13.98
2023-05-21T17:40:35.365Z,13.85
2023-05-21T17:43:04.330Z,11.52
2023-05-21T17:45:32.217Z,12.52
2023-05-21T17:48:00.977Z,10.60
2023-05-21T17:50:30.491Z,13.98
2023-05-21T17:52:58.489Z,12.90
2023-05-21T17:55:27.144Z,13.63
2023-05-21T17:57:54.957Z,12.02
2023-05-21T18:00:22.857Z,10.63
2023-05-21T18:02:51.319Z,11.35
2023-05-21T18:05:19.160Z,10.67
2023-05-21T18:07:48.356Z,10.70
2023-05-21T18:10:16.944Z,14.23
2023-05-21T18:12:46.206Z,13.20
2023-05-21T18:17:43.028Z,10.68
2023-05-21T18:20:12.121Z,15.18
2023-05-21T18:22:40.030Z,13.65
2023-05-21T18:25:11.222Z,13.80
2023-05-21T18:27:39.096Z,15.25
2023-05-21T18:30:08.524Z,12.23
2023-05-21T18:35:08.232Z,14.98
2023-05-21T18:37:37.261Z,13.32
2023-05-21T18:42:57.342Z,11.02
2023-05-21T18:45:25.760Z,15.77
2023-05-21T18:47:53.717Z,11.02
2023-05-21T18:50:21.760Z,13.35
2023-05-21T18:52:51.665Z,15.10
2023-05-21T18:55:20.792Z,13.63
2023-05-21T18:57:48.638Z,15.65
2023-05-21T19:00:19.201Z,13.93
2023-05-21T19:02:47.316Z,14.40
2023-05-21T19:05:15.198Z,12.20
2023-05-21T19:07:43.511Z,11.52
2023-05-21T19:10:13.133Z,13.50
2023-05-21T19:15:11.986Z,14.52
2023-05-21T19:17:41.274Z,11.38
2023-05-21T19:20:10.679Z,12.48
2023-05-21T19:22:39.310Z,12.35
2023-05-21T19:25:08.008Z,19.10
2023-05-21T19:27:35.858Z,15.20
2023-05-21T19:30:04.609Z,13.13
2023-05-21T19:32:32.437Z,13.00
2023-05-21T19:35:01.998Z,12.95
2023-05-21T19:37:30.393Z,15.80
2023-05-21T19:39:58.224Z,14.90
2023-05-21T19:42:26.872Z,10.95
2023-05-21T19:44:55.004Z,12.02
2023-05-21T19:47:22.876Z,12.35
2023-05-21T19:49:50.718Z,10.95
2023-05-21T19:52:20.533Z,14.40
2023-05-21T19:54:48.378Z,13.75
2023-05-21T19:57:16.487Z,12.57
2023-05-21T19:59:44.358Z,15.35
2023-05-21T20:02:15.124Z,11.63
2023-05-21T20:04:42.964Z,13.38
2023-05-21T20:07:11.433Z,12.98
2023-05-21T20:09:41.270Z,17.40
2023-05-21T20:14:37.848Z,12.95
2023-05-21T20:17:07.092Z,13.77
2023-05-21T20:22:03.956Z,16.98
2023-05-21T20:24:31.848Z,15.27
2023-05-21T20:27:01.971Z,15.25
2023-05-21T20:29:30.304Z,15.18
2023-05-21T20:31:58.129Z,16.50
2023-05-21T20:34:27.350Z,12.40
2023-05-21T20:36:58.414Z,10.88
2023-05-21T20:39:27.800Z,13.38
2023-05-21T20:41:56.005Z,10.57
2023-05-21T20:44:27.704Z,13.07
2023-05-21T20:46:55.676Z,17.25
2023-05-21T20:49:24.759Z,11.88
2023-05-21T20:51:53.072Z,12.32
2023-05-21T20:54:22.218Z,13.63
2023-05-21T20:56:55.005Z,11.90
2023-05-21T20:59:22.806Z,14.60
2023-05-21T21:01:52.564Z,13.00
2023-05-21T21:04:20.946Z,12.70
2023-05-21T21:06:50.224Z,13.38
2023-05-21T21:09:18.266Z,14.65
2023-05-21T21:11:46.350Z,11.23
2023-05-21T21:14:14.807Z,11.68
2023-05-21T21:16:42.801Z,13.80
2023-05-21T21:19:12.521Z,15.45
2023-05-21T21:21:40.428Z,12.43
2023-05-21T21:24:08.775Z,15.00
2023-05-21T21:26:36.927Z,15.05
2023-05-21T21:29:04.907Z,21.50
2023-05-21T21:31:32.769Z,16.10
2023-05-21T21:34:01.493Z,14.38
2023-05-21T21:36:31.247Z,13.82
2023-05-21T21:38:59.055Z,15.63
2023-05-21T21:41:27.420Z,15.30
2023-05-21T21:43:55.295Z,14.68
2023-05-21T21:46:23.459Z,13.05
2023-05-21T21:48:51.853Z,13.77
2023-05-21T21:51:23.199Z,16.92
2023-05-21T21:53:53.383Z,14.05
2023-05-21T21:56:22.073Z,14.95
2023-05-21T21:58:49.931Z,14.00
2023-05-21T22:01:18.832Z,17.33
2023-05-21T22:03:46.866Z,13.07
2023-05-21T22:06:14.705Z,15.57
2023-05-21T22:08:42.896Z,17.60
2023-05-21T22:11:12.277Z,14.52
2023-05-21T22:13:41.606Z,16.10
2023-05-21T22:16:12.288Z,18.85
2023-05-21T22:18:41.960Z,17.60
2023-05-21T22:21:10.645Z,22.90
2023-05-21T22:23:39.844Z,16.48
2023-05-21T22:26:08.207Z,14.60
2023-05-21T22:28:37.447Z,17.10
2023-05-21T22:31:06.628Z,17.90
2023-05-21T22:33:34.487Z,16.08
2023-05-21T22:36:02.340Z,19.30
2023-05-21T22:38:30.962Z,19.17
2023-05-21T22:40:58.870Z,18.23
2023-05-21T22:43:27.180Z,22.20
2023-05-21T22:45:57.004Z,18.17
2023-05-21T22:48:24.935Z,15.27
2023-05-21T22:50:53.421Z,15.10
2023-05-21T22:53:22.069Z,17.00
2023-05-21T22:55:49.954Z,19.42
2023-05-21T22:58:18.249Z,19.75
2023-05-21T23:00:46.572Z,16.75
2023-05-21T23:03:16.278Z,17.13
2023-05-21T23:05:44.592Z,18.02
2023-05-21T23:08:13.503Z,17.80
2023-05-21T23:10:41.583Z,17.73
2023-05-21T23:13:09.569Z,18.27
2023-05-21T23:15:39.312Z,16.77
2023-05-21T23:18:08.770Z,17.08
2023-05-21T23:20:41.796Z,19.45
2023-05-21T23:23:10.527Z,17.15
2023-05-21T23:25:38.511Z,17.38
2023-05-21T23:28:07.233Z,20.23
2023-05-21T23:30:35.105Z,20.33
2023-05-21T23:33:03.642Z,16.70
2023-05-21T23:35:32.031Z,19.90
2023-05-21T23:38:01.274Z,18.42
2023-05-21T23:40:29.095Z,19.63
2023-05-21T23:42:57.405Z,19.00
2023-05-21T23:45:25.246Z,19.65
2023-05-21T23:47:53.654Z,17.83
2023-05-21T23:50:22.506Z,20.48
2023-05-21T23:52:50.768Z,22.70
2023-05-21T23:55:19.989Z,16.20
2023-05-21T23:57:48.362Z,19.05
